Impacts METAR Board
IDs:

KMEM - Memphis Intl, TN, US

Updated at: 1400 UTC 13 Dec 2018
Potential Impact None Slight Moderate High
Time 13/02Z 13/03Z 13/04Z 13/05Z 13/06Z 13/07Z 13/08Z 13/09Z 13/10Z 13/11Z 13/12Z 13/13Z 13/14Z
Temp51 51 51 51 52 51 51 51 51 51 52 52 52
Dewpt36 33 33 36 39 42 43 47 47 47 47 47 48
Altim30.03 30.03 30.01 30.01 30.01 30.01 30.00 30.00 29.97 29.96 29.96 29.97 29.99
VIS10 10 10 10 10 10 10 6 10 7 10 10 10
CIG37 41 42 50 60 42 48 38 43 48 50 50 50
CoverOVCOVCOVCOVCOVCOVCOVCOVCOVCOVCOVCOVCOVC
FltCatVFRVFRVFRVFRVFRVFRVFRVFRVFRVFRVFRVFRVFR
WX---------------RA BR--RA------
WDir160150150170170160150160150140140140160
WSpd8 7 6 5 7 7 7 10 11 7 6 7 6
WGst-- -- -- -- -- -- -- -- -- -- -- -- --
Raw hourly METARs
KMEM 130154Z 16008KT 10SM OVC037 11/02 A3003 RMK AO2 RAB04E13 SLP170 P0000 T01060022
KMEM 130302Z 15007KT 10SM BKN041 OVC055 11/01 A3003 RMK AO2 T01060006
KMEM 130354Z 15006KT 10SM OVC042 11/01 A3001 RMK AO2 SLP163 T01060006
KMEM 130454Z 17005KT 10SM OVC050 11/02 A3001 RMK AO2 SLP163 T01060022
KMEM 130554Z 17007KT 10SM SCT045 OVC060 11/04 A3001 RMK AO2 SLP162 60000 T01110039 10111 20100 401170044 56006
KMEM 130654Z 16007KT 10SM BKN042 OVC060 11/06 A3001 RMK AO2 SLP160 VCSH T01060056
KMEM 130754Z 15007KT 10SM FEW034 OVC048 11/06 A3000 RMK AO2 SLP159 T01060061
KMEM 130854Z 16010KT 6SM -RA BR BKN038 OVC047 11/08 A3000 RMK AO2 RAB36 SLP157 P0001 60001 T01060083 57005
KMEM 130954Z 15011KT 10SM OVC043 11/08 A2997 RMK AO2 RAE05B37E46 SLP148 P0000 T01060083
KMEM 131054Z 14007KT 7SM RA OVC048 11/08 A2996 RMK AO2 RAB45 SLP146 P0000 T01060083
KMEM 131154Z 14006KT 10SM OVC050 11/08 A2996 RMK AO2 RAE11 SLP146 P0002 60003 70003 T01110083 10111 20100 55011
KMEM 131254Z 14007KT 10SM OVC050 11/08 A2997 RMK AO2 SLP148 VCSH T01110083
KMEM 131354Z 16006KT 10SM OVC050 11/09 A2999 RMK AO2 SLP154 VCSH T01110089



Page loaded:  14:43 UTC  |   06:43 AM Pacific  |   07:43 AM Mountain  |   08:43 AM Central  |   09:43 AM Eastern

 

ADVISORIES

FORECASTS

FORECASTS

OBSERVATIONS

USER TOOLS

ABOUT US